createdAt,value
2023-02-06T00:00:53.244Z,1095
2023-02-06T00:20:53.303Z,1090
2023-02-06T00:41:09.379Z,1086
2023-02-06T01:01:01.422Z,1087
2023-02-06T01:20:52.762Z,1086
2023-02-06T01:40:53.671Z,1083
2023-02-06T02:00:53.680Z,1083
2023-02-06T02:20:52.967Z,1082
2023-02-06T02:40:53.800Z,1084
2023-02-06T03:01:01.910Z,1086
2023-02-06T03:40:54.041Z,1086
2023-02-06T04:00:54.114Z,1082
2023-02-06T04:21:02.186Z,1081
2023-02-06T04:40:54.296Z,1081
2023-02-06T05:01:02.374Z,1082
2023-02-06T05:21:02.430Z,1078
2023-02-06T05:40:54.487Z,1079
2023-02-06T06:00:54.545Z,1084
2023-02-06T06:20:53.900Z,1083
2023-02-06T06:41:10.727Z,1084
2023-02-06T07:00:54.794Z,1084
2023-02-06T07:20:54.853Z,1081
2023-02-06T07:41:02.953Z,1083
2023-02-06T08:20:55.110Z,1081
2023-02-06T08:40:54.374Z,1082
2023-02-06T09:01:03.228Z,1075
2023-02-06T09:40:54.568Z,1076
2023-02-06T10:00:55.423Z,1083
2023-02-06T10:20:55.491Z,1082
2023-02-06T10:41:03.822Z,1080
2023-02-06T11:00:55.654Z,1078
2023-02-06T11:20:55.926Z,1074
2023-02-06T11:40:55.756Z,1073
2023-02-06T12:00:55.827Z,1063
2023-02-06T12:20:55.863Z,1065
2023-02-06T12:41:03.942Z,1069
2023-02-06T13:00:55.986Z,1071
2023-02-06T13:21:04.036Z,1076
2023-02-06T13:40:56.094Z,1074
2023-02-06T14:01:04.187Z,1074
2023-02-06T14:20:56.247Z,1070
2023-02-06T15:01:04.399Z,1075
2023-02-06T15:21:04.409Z,1073
2023-02-06T15:40:56.505Z,1070
2023-02-06T16:01:03.837Z,1074
2023-02-06T16:21:12.643Z,1079
2023-02-06T17:00:56.764Z,1080
2023-02-06T17:21:04.833Z,1077
2023-02-06T18:20:57.033Z,1075
2023-02-06T19:01:05.188Z,1074
2023-02-06T19:41:05.302Z,1073
2023-02-06T20:00:57.423Z,1073
2023-02-06T21:00:57.623Z,1069
2023-02-06T21:21:05.691Z,1072
2023-02-06T21:41:05.779Z,1058
2023-02-06T22:00:57.817Z,1070
2023-02-06T22:41:05.954Z,1066
2023-02-06T23:00:58.048Z,1067
2023-02-06T23:21:14.125Z,1067
2023-02-06T23:40:58.198Z,1070
